sensor_id;sensor_type;location;lat;lon;timestamp;temperature;humidity
4207;DHT22;2117;47.972;7.830;2022-08-19T03:31:02;18.30;99.90
4207;DHT22;2117;47.972;7.830;2022-08-19T03:33:28;18.30;99.90
4207;DHT22;2117;47.972;7.830;2022-08-19T03:36:21;18.30;99.90
4207;DHT22;2117;47.972;7.830;2022-08-19T03:38:50;18.30;99.90
4207;DHT22;2117;47.972;7.830;2022-08-19T03:41:21;18.30;99.90
4207;DHT22;2117;47.972;7.830;2022-08-19T03:43:47;18.30;99.90
4207;DHT22;2117;47.972;7.830;2022-08-19T03:46:24;18.30;99.90
4207;DHT22;2117;47.972;7.830;2022-08-19T03:48:52;18.30;99.90
4207;DHT22;2117;47.972;7.830;2022-08-19T03:51:25;18.30;99.90
4207;DHT22;2117;47.972;7.830;2022-08-19T03:53:52;18.30;99.90
4207;DHT22;2117;47.972;7.830;2022-08-19T03:56:19;18.30;99.90
4207;DHT22;2117;47.972;7.830;2022-08-19T03:58:45;18.30;99.90
4207;DHT22;2117;47.972;7.830;2022-08-19T04:01:14;18.30;99.90
4207;DHT22;2117;47.972;7.830;2022-08-19T04:03:40;18.30;99.90
4207;DHT22;2117;47.972;7.830;2022-08-19T04:06:14;18.30;99.90
4207;DHT22;2117;47.972;7.830;2022-08-19T04:08:42;18.30;99.90
4207;DHT22;2117;47.972;7.830;2022-08-19T04:11:14;18.30;99.90
4207;DHT22;2117;47.972;7.830;2022-08-19T04:13:40;18.30;99.90
4207;DHT22;2117;47.972;7.830;2022-08-19T04:16:06;18.40;99.90
4207;DHT22;2117;47.972;7.830;2022-08-19T04:18:36;18.40;99.90
4207;DHT22;2117;47.972;7.830;2022-08-19T04:21:01;18.40;99.90
4207;DHT22;2117;47.972;7.830;2022-08-19T04:23:27;18.40;99.90
4207;DHT22;2117;47.972;7.830;2022-08-19T04:25:56;18.40;99.90
4207;DHT22;2117;47.972;7.830;2022-08-19T04:28:22;18.40;99.90
4207;DHT22;2117;47.972;7.830;2022-08-19T04:30:51;18.40;99.90
4207;DHT22;2117;47.972;7.830;2022-08-19T04:33:19;18.40;99.90
4207;DHT22;2117;47.972;7.830;2022-08-19T04:35:47;18.40;99.90
4207;DHT22;2117;47.972;7.830;2022-08-19T04:38:15;18.40;99.90
4207;DHT22;2117;47.972;7.830;2022-08-19T04:40:43;18.50;99.90
4207;DHT22;2117;47.972;7.830;2022-08-19T04:43:28;18.50;99.90
4207;DHT22;2117;47.972;7.830;2022-08-19T04:45:54;18.50;99.90
4207;DHT22;2117;47.972;7.830;2022-08-19T04:48:20;18.80;99.90
4207;DHT22;2117;47.972;7.830;2022-08-19T04:50:54;18.90;99.90
4207;DHT22;2117;47.972;7.830;2022-08-19T04:53:24;19.10;99.90
4207;DHT22;2117;47.972;7.830;2022-08-19T04:55:50;19.10;99.90
4207;DHT22;2117;47.972;7.830;2022-08-19T04:58:16;19.10;99.90
4207;DHT22;2117;47.972;7.830;2022-08-19T05:00:43;19.20;99.90
4207;DHT22;2117;47.972;7.830;2022-08-19T05:03:09;19.20;99.90
4207;DHT22;2117;47.972;7.830;2022-08-19T05:05:40;19.20;99.90
4207;DHT22;2117;47.972;7.830;2022-08-19T05:08:06;19.10;99.90
4207;DHT22;2117;47.972;7.830;2022-08-19T05:10:35;19.00;99.90
4207;DHT22;2117;47.972;7.830;2022-08-19T05:13:01;19.00;99.90
4207;DHT22;2117;47.972;7.830;2022-08-19T05:15:27;18.90;99.90
4207;DHT22;2117;47.972;7.830;2022-08-19T05:17:52;18.90;99.90
4207;DHT22;2117;47.972;7.830;2022-08-19T05:20:38;18.90;99.90
4207;DHT22;2117;47.972;7.830;2022-08-19T05:23:22;18.80;99.90
4207;DHT22;2117;47.972;7.830;2022-08-19T05:25:49;18.80;99.90
4207;DHT22;2117;47.972;7.830;2022-08-19T05:28:15;18.80;99.90
4207;DHT22;2117;47.972;7.830;2022-08-19T05:30:41;18.80;99.90
4207;DHT22;2117;47.972;7.830;2022-08-19T05:33:09;18.80;99.90
4207;DHT22;2117;47.972;7.830;2022-08-19T05:35:37;18.80;99.90
4207;DHT22;2117;47.972;7.830;2022-08-19T05:38:03;18.80;99.90
4207;DHT22;2117;47.972;7.830;2022-08-19T05:40:29;18.70;99.90
4207;DHT22;2117;47.972;7.830;2022-08-19T05:42:54;18.70;99.90
4207;DHT22;2117;47.972;7.830;2022-08-19T05:45:20;18.70;99.90
4207;DHT22;2117;47.972;7.830;2022-08-19T05:47:47;18.70;99.90
4207;DHT22;2117;47.972;7.830;2022-08-19T05:50:13;18.70;99.90
4207;DHT22;2117;47.972;7.830;2022-08-19T05:52:39;18.70;99.90
4207;DHT22;2117;47.972;7.830;2022-08-19T05:55:05;18.70;99.90
4207;DHT22;2117;47.972;7.830;2022-08-19T05:57:31;18.80;99.90
4207;DHT22;2117;47.972;7.830;2022-08-19T05:59:57;18.80;99.90
4207;DHT22;2117;47.972;7.830;2022-08-19T06:02:26;18.80;99.90
4207;DHT22;2117;47.972;7.830;2022-08-19T06:04:52;18.80;99.90
4207;DHT22;2117;47.972;7.830;2022-08-19T06:07:18;18.80;99.90
4207;DHT22;2117;47.972;7.830;2022-08-19T06:09:44;18.80;99.90
4207;DHT22;2117;47.972;7.830;2022-08-19T06:12:10;18.80;99.90
4207;DHT22;2117;47.972;7.830;2022-08-19T06:14:36;18.80;99.90
4207;DHT22;2117;47.972;7.830;2022-08-19T06:17:02;18.90;99.90
4207;DHT22;2117;47.972;7.830;2022-08-19T06:19:30;18.90;99.90
4207;DHT22;2117;47.972;7.830;2022-08-19T06:21:57;18.90;99.90
4207;DHT22;2117;47.972;7.830;2022-08-19T06:24:26;18.90;99.90
4207;DHT22;2117;47.972;7.830;2022-08-19T06:26:54;18.90;99.90
4207;DHT22;2117;47.972;7.830;2022-08-19T06:29:22;18.90;99.90
4207;DHT22;2117;47.972;7.830;2022-08-19T06:31:50;19.00;99.90
4207;DHT22;2117;47.972;7.830;2022-08-19T06:34:17;19.00;99.90
4207;DHT22;2117;47.972;7.830;2022-08-19T06:36:49;19.10;99.90
4207;DHT22;2117;47.972;7.830;2022-08-19T06:39:22;19.10;99.90
4207;DHT22;2117;47.972;7.830;2022-08-19T06:41:50;19.10;99.90
4207;DHT22;2117;47.972;7.830;2022-08-19T06:44:18;19.10;99.90
4207;DHT22;2117;47.972;7.830;2022-08-19T06:46:44;19.20;99.90
4207;DHT22;2117;47.972;7.830;2022-08-19T06:49:10;19.20;99.90
4207;DHT22;2117;47.972;7.830;2022-08-19T06:51:42;19.20;99.90
4207;DHT22;2117;47.972;7.830;2022-08-19T06:54:09;19.10;99.90
4207;DHT22;2117;47.972;7.830;2022-08-19T06:56:37;19.20;99.90
4207;DHT22;2117;47.972;7.830;2022-08-19T06:59:09;19.20;99.90
4207;DHT22;2117;47.972;7.830;2022-08-19T07:01:43;19.30;99.90
4207;DHT22;2117;47.972;7.830;2022-08-19T07:04:11;19.30;99.90
4207;DHT22;2117;47.972;7.830;2022-08-19T07:06:37;19.40;99.90
4207;DHT22;2117;47.972;7.830;2022-08-19T07:09:04;19.40;99.90
4207;DHT22;2117;47.972;7.830;2022-08-19T07:11:30;19.40;99.90
4207;DHT22;2117;47.972;7.830;2022-08-19T07:13:58;19.50;99.90
4207;DHT22;2117;47.972;7.830;2022-08-19T07:16:23;19.50;99.90
4207;DHT22;2117;47.972;7.830;2022-08-19T07:18:51;19.60;99.90
4207;DHT22;2117;47.972;7.830;2022-08-19T07:21:27;19.60;99.90
4207;DHT22;2117;47.972;7.830;2022-08-19T07:23:54;19.70;99.90
4207;DHT22;2117;47.972;7.830;2022-08-19T07:26:26;19.70;99.90
4207;DHT22;2117;47.972;7.830;2022-08-19T07:28:52;19.80;99.90
4207;DHT22;2117;47.972;7.830;2022-08-19T07:31:22;19.80;99.90
4207;DHT22;2117;47.972;7.830;2022-08-19T07:33:50;19.90;99.90
4207;DHT22;2117;47.972;7.830;2022-08-19T07:36:21;19.90;99.90
4207;DHT22;2117;47.972;7.830;2022-08-19T07:38:49;20.00;99.90
4207;DHT22;2117;47.972;7.830;2022-08-19T07:41:20;20.00;99.90
4207;DHT22;2117;47.972;7.830;2022-08-19T07:43:46;20.00;99.90
4207;DHT22;2117;47.972;7.830;2022-08-19T07:46:12;20.00;99.90
4207;DHT22;2117;47.972;7.830;2022-08-19T07:48:40;20.10;99.90
4207;DHT22;2117;47.972;7.830;2022-08-19T07:51:07;20.10;99.90
4207;DHT22;2117;47.972;7.830;2022-08-19T07:53:34;20.10;99.90
4207;DHT22;2117;47.972;7.830;2022-08-19T07:56:00;20.20;99.90
4207;DHT22;2117;47.972;7.830;2022-08-19T07:58:35;20.10;99.90
4207;DHT22;2117;47.972;7.830;2022-08-19T08:01:01;20.20;99.90
4207;DHT22;2117;47.972;7.830;2022-08-19T08:03:27;20.30;99.90
4207;DHT22;2117;47.972;7.830;2022-08-19T08:06:14;20.30;99.90
4207;DHT22;2117;47.972;7.830;2022-08-19T08:08:59;20.30;99.90
4207;DHT22;2117;47.972;7.830;2022-08-19T08:11:38;20.40;99.90
4207;DHT22;2117;47.972;7.830;2022-08-19T08:14:04;20.50;99.90
4207;DHT22;2117;47.972;7.830;2022-08-19T08:16:34;20.50;99.90
4207;DHT22;2117;47.972;7.830;2022-08-19T08:19:00;20.50;99.90
4207;DHT22;2117;47.972;7.830;2022-08-19T08:21:26;20.50;99.90
4207;DHT22;2117;47.972;7.830;2022-08-19T08:23:51;20.60;99.90
4207;DHT22;2117;47.972;7.830;2022-08-19T08:26:20;20.60;99.90
4207;DHT22;2117;47.972;7.830;2022-08-19T08:28:46;20.60;99.90
4207;DHT22;2117;47.972;7.830;2022-08-19T08:31:12;20.60;99.90
4207;DHT22;2117;47.972;7.830;2022-08-19T08:33:38;20.60;99.90
4207;DHT22;2117;47.972;7.830;2022-08-19T08:36:08;20.60;99.90
4207;DHT22;2117;47.972;7.830;2022-08-19T08:38:34;20.60;99.90
4207;DHT22;2117;47.972;7.830;2022-08-19T08:41:12;20.60;99.90
4207;DHT22;2117;47.972;7.830;2022-08-19T08:43:46;20.70;99.90
4207;DHT22;2117;47.972;7.830;2022-08-19T08:46:22;20.70;99.90
4207;DHT22;2117;47.972;7.830;2022-08-19T08:51:45;20.70;99.90
4207;DHT22;2117;47.972;7.830;2022-08-19T08:54:16;20.80;99.90
4207;DHT22;2117;47.972;7.830;2022-08-19T08:56:44;20.80;99.90
4207;DHT22;2117;47.972;7.830;2022-08-19T08:59:21;20.90;99.90
4207;DHT22;2117;47.972;7.830;2022-08-19T09:01:47;21.00;99.90
4207;DHT22;2117;47.972;7.830;2022-08-19T09:04:13;21.00;99.90
4207;DHT22;2117;47.972;7.830;2022-08-19T09:07:09;21.00;99.90
4207;DHT22;2117;47.972;7.830;2022-08-19T09:09:42;21.00;99.90
4207;DHT22;2117;47.972;7.830;2022-08-19T09:12:31;21.00;99.90
4207;DHT22;2117;47.972;7.830;2022-08-19T09:15:03;21.00;99.90
4207;DHT22;2117;47.972;7.830;2022-08-19T09:17:30;20.90;99.90
4207;DHT22;2117;47.972;7.830;2022-08-19T09:22:34;20.90;99.90
4207;DHT22;2117;47.972;7.830;2022-08-19T09:25:02;20.90;99.90
4207;DHT22;2117;47.972;7.830;2022-08-19T09:27:28;20.90;99.90
4207;DHT22;2117;47.972;7.830;2022-08-19T09:29:54;21.00;99.90
4207;DHT22;2117;47.972;7.830;2022-08-19T09:32:21;21.00;99.90
4207;DHT22;2117;47.972;7.830;2022-08-19T09:34:47;21.00;99.90
4207;DHT22;2117;47.972;7.830;2022-08-19T09:37:13;21.00;99.90
4207;DHT22;2117;47.972;7.830;2022-08-19T09:39:39;21.00;99.90
4207;DHT22;2117;47.972;7.830;2022-08-19T09:42:06;21.00;99.90
4207;DHT22;2117;47.972;7.830;2022-08-19T09:44:40;21.00;99.90
4207;DHT22;2117;47.972;7.830;2022-08-19T09:47:06;21.00;99.90
4207;DHT22;2117;47.972;7.830;2022-08-19T09:49:33;21.10;99.90
4207;DHT22;2117;47.972;7.830;2022-08-19T09:51:59;21.10;99.90
4207;DHT22;2117;47.972;7.830;2022-08-19T09:54:25;21.10;99.90
4207;DHT22;2117;47.972;7.830;2022-08-19T09:56:55;21.20;99.90
4207;DHT22;2117;47.972;7.830;2022-08-19T09:59:21;21.20;99.90
4207;DHT22;2117;47.972;7.830;2022-08-19T10:01:47;21.30;99.90
4207;DHT22;2117;47.972;7.830;2022-08-19T10:04:12;21.40;99.90
4207;DHT22;2117;47.972;7.830;2022-08-19T10:06:39;21.40;99.90
4207;DHT22;2117;47.972;7.830;2022-08-19T10:09:07;21.50;99.90
4207;DHT22;2117;47.972;7.830;2022-08-19T10:11:34;21.50;99.90
4207;DHT22;2117;47.972;7.830;2022-08-19T10:14:01;21.70;99.90
4207;DHT22;2117;47.972;7.830;2022-08-19T10:16:27;21.70;99.90
4207;DHT22;2117;47.972;7.830;2022-08-19T10:18:54;21.90;99.90
4207;DHT22;2117;47.972;7.830;2022-08-19T10:21:24;22.00;99.90
4207;DHT22;2117;47.972;7.830;2022-08-19T10:23:52;22.20;99.90
4207;DHT22;2117;47.972;7.830;2022-08-19T10:26:21;22.30;99.90
4207;DHT22;2117;47.972;7.830;2022-08-19T10:28:48;22.30;99.90
4207;DHT22;2117;47.972;7.830;2022-08-19T10:31:17;22.50;99.90
4207;DHT22;2117;47.972;7.830;2022-08-19T10:33:45;22.50;99.90
4207;DHT22;2117;47.972;7.830;2022-08-19T10:36:14;22.30;99.90
4207;DHT22;2117;47.972;7.830;2022-08-19T10:38:41;22.30;99.90
4207;DHT22;2117;47.972;7.830;2022-08-19T10:41:15;22.20;99.90
4207;DHT22;2117;47.972;7.830;2022-08-19T10:43:41;22.20;99.90
4207;DHT22;2117;47.972;7.830;2022-08-19T10:46:09;22.10;99.90
4207;DHT22;2117;47.972;7.830;2022-08-19T10:48:35;22.20;99.90
4207;DHT22;2117;47.972;7.830;2022-08-19T10:51:01;22.30;99.90
4207;DHT22;2117;47.972;7.830;2022-08-19T10:53:46;22.40;99.90
4207;DHT22;2117;47.972;7.830;2022-08-19T10:56:12;22.50;99.90
4207;DHT22;2117;47.972;7.830;2022-08-19T10:58:56;22.40;99.90
4207;DHT22;2117;47.972;7.830;2022-08-19T11:01:23;22.50;99.90
4207;DHT22;2117;47.972;7.830;2022-08-19T11:03:49;22.50;99.90
4207;DHT22;2117;47.972;7.830;2022-08-19T11:06:15;22.50;99.90
4207;DHT22;2117;47.972;7.830;2022-08-19T11:08:41;22.60;99.90
4207;DHT22;2117;47.972;7.830;2022-08-19T11:11:10;22.70;99.90
4207;DHT22;2117;47.972;7.830;2022-08-19T11:13:38;22.70;99.90
4207;DHT22;2117;47.972;7.830;2022-08-19T11:16:07;22.80;99.90
4207;DHT22;2117;47.972;7.830;2022-08-19T11:18:38;23.00;99.90
4207;DHT22;2117;47.972;7.830;2022-08-19T11:21:14;23.10;99.90
4207;DHT22;2117;47.972;7.830;2022-08-19T11:23:42;23.20;99.90
4207;DHT22;2117;47.972;7.830;2022-08-19T11:26:08;23.30;99.90
4207;DHT22;2117;47.972;7.830;2022-08-19T11:28:34;23.50;99.90
4207;DHT22;2117;47.972;7.830;2022-08-19T11:31:00;23.60;99.90
4207;DHT22;2117;47.972;7.830;2022-08-19T11:33:28;23.60;99.90
4207;DHT22;2117;47.972;7.830;2022-08-19T11:35:53;23.90;99.90
4207;DHT22;2117;47.972;7.830;2022-08-19T11:38:19;24.00;99.90
4207;DHT22;2117;47.972;7.830;2022-08-19T11:40:45;24.40;99.90
4207;DHT22;2117;47.972;7.830;2022-08-19T11:43:10;24.50;99.90
4207;DHT22;2117;47.972;7.830;2022-08-19T11:45:36;24.60;99.90
4207;DHT22;2117;47.972;7.830;2022-08-19T11:48:02;24.80;99.90
4207;DHT22;2117;47.972;7.830;2022-08-19T11:50:28;24.80;99.90
4207;DHT22;2117;47.972;7.830;2022-08-19T11:52:55;24.70;99.90
4207;DHT22;2117;47.972;7.830;2022-08-19T11:55:22;24.80;99.90
4207;DHT22;2117;47.972;7.830;2022-08-19T11:57:48;24.80;99.90
4207;DHT22;2117;47.972;7.830;2022-08-19T12:00:14;25.00;99.90
4207;DHT22;2117;47.972;7.830;2022-08-19T12:02:40;25.10;99.90
4207;DHT22;2117;47.972;7.830;2022-08-19T12:05:07;25.40;99.90
4207;DHT22;2117;47.972;7.830;2022-08-19T12:07:33;25.50;99.90
4207;DHT22;2117;47.972;7.830;2022-08-19T12:10:00;25.30;99.90
4207;DHT22;2117;47.972;7.830;2022-08-19T12:12:26;25.20;99.90
4207;DHT22;2117;47.972;7.830;2022-08-19T12:14:52;25.20;99.90
4207;DHT22;2117;47.972;7.830;2022-08-19T12:17:26;25.20;99.90
4207;DHT22;2117;47.972;7.830;2022-08-19T12:19:53;25.30;99.90
4207;DHT22;2117;47.972;7.830;2022-08-19T12:22:19;25.20;99.90
4207;DHT22;2117;47.972;7.830;2022-08-19T12:24:46;25.20;99.90
4207;DHT22;2117;47.972;7.830;2022-08-19T12:27:11;25.30;99.90
4207;DHT22;2117;47.972;7.830;2022-08-19T12:29:37;25.10;99.90
4207;DHT22;2117;47.972;7.830;2022-08-19T12:32:03;25.10;99.90
4207;DHT22;2117;47.972;7.830;2022-08-19T12:34:29;25.20;99.90
4207;DHT22;2117;47.972;7.830;2022-08-19T12:37:02;25.30;99.90
4207;DHT22;2117;47.972;7.830;2022-08-19T12:39:28;25.30;99.90
4207;DHT22;2117;47.972;7.830;2022-08-19T12:41:55;25.10;99.90
4207;DHT22;2117;47.972;7.830;2022-08-19T12:44:22;25.00;99.90
4207;DHT22;2117;47.972;7.830;2022-08-19T12:46:48;25.20;99.90
4207;DHT22;2117;47.972;7.830;2022-08-19T12:49:14;25.20;99.90
4207;DHT22;2117;47.972;7.830;2022-08-19T12:51:41;25.30;99.90
4207;DHT22;2117;47.972;7.830;2022-08-19T12:54:07;25.50;99.90
4207;DHT22;2117;47.972;7.830;2022-08-19T12:56:33;25.50;99.90
4207;DHT22;2117;47.972;7.830;2022-08-19T12:59:03;25.60;99.90
4207;DHT22;2117;47.972;7.830;2022-08-19T13:01:29;25.40;99.90
4207;DHT22;2117;47.972;7.830;2022-08-19T13:03:58;25.30;99.90
4207;DHT22;2117;47.972;7.830;2022-08-19T13:06:23;25.40;99.90
4207;DHT22;2117;47.972;7.830;2022-08-19T13:08:49;25.50;99.90
4207;DHT22;2117;47.972;7.830;2022-08-19T13:11:18;25.40;99.90
4207;DHT22;2117;47.972;7.830;2022-08-19T13:13:48;25.20;99.90
4207;DHT22;2117;47.972;7.830;2022-08-19T13:16:14;25.20;99.90
4207;DHT22;2117;47.972;7.830;2022-08-19T13:18:41;25.20;99.90
4207;DHT22;2117;47.972;7.830;2022-08-19T13:21:09;25.40;99.90
4207;DHT22;2117;47.972;7.830;2022-08-19T13:23:37;25.60;99.90
4207;DHT22;2117;47.972;7.830;2022-08-19T13:26:05;25.90;99.90
4207;DHT22;2117;47.972;7.830;2022-08-19T13:28:32;26.10;99.90
4207;DHT22;2117;47.972;7.830;2022-08-19T13:31:18;26.40;99.90
4207;DHT22;2117;47.972;7.830;2022-08-19T13:34:03;26.40;99.90
4207;DHT22;2117;47.972;7.830;2022-08-19T13:36:31;26.70;99.90
4207;DHT22;2117;47.972;7.830;2022-08-19T13:38:56;26.80;99.90
4207;DHT22;2117;47.972;7.830;2022-08-19T13:41:22;27.30;99.90
4207;DHT22;2117;47.972;7.830;2022-08-19T13:43:48;27.80;99.90
4207;DHT22;2117;47.972;7.830;2022-08-19T13:46:14;28.10;99.90
4207;DHT22;2117;47.972;7.830;2022-08-19T13:48:40;28.30;99.90
4207;DHT22;2117;47.972;7.830;2022-08-19T13:51:07;28.50;99.90
4207;DHT22;2117;47.972;7.830;2022-08-19T13:53:36;28.80;99.90
4207;DHT22;2117;47.972;7.830;2022-08-19T13:56:11;29.10;99.90
4207;DHT22;2117;47.972;7.830;2022-08-19T13:58:37;29.40;99.90
4207;DHT22;2117;47.972;7.830;2022-08-19T14:01:03;29.50;99.90
4207;DHT22;2117;47.972;7.830;2022-08-19T14:03:30;29.70;99.90
4207;DHT22;2117;47.972;7.830;2022-08-19T14:05:56;29.90;99.90
4207;DHT22;2117;47.972;7.830;2022-08-19T14:08:22;30.20;99.90
4207;DHT22;2117;47.972;7.830;2022-08-19T14:10:48;30.00;99.90
4207;DHT22;2117;47.972;7.830;2022-08-19T14:13:19;29.90;99.90
4207;DHT22;2117;47.972;7.830;2022-08-19T14:15:45;29.50;99.90
4207;DHT22;2117;47.972;7.830;2022-08-19T14:18:13;29.30;99.90
4207;DHT22;2117;47.972;7.830;2022-08-19T14:20:39;29.50;99.90
4207;DHT22;2117;47.972;7.830;2022-08-19T14:23:05;29.70;99.90
4207;DHT22;2117;47.972;7.830;2022-08-19T14:25:31;29.40;99.90
4207;DHT22;2117;47.972;7.830;2022-08-19T14:27:58;29.00;99.90
4207;DHT22;2117;47.972;7.830;2022-08-19T14:30:29;28.70;99.90
4207;DHT22;2117;47.972;7.830;2022-08-19T14:32:57;28.30;99.90
4207;DHT22;2117;47.972;7.830;2022-08-19T14:35:24;27.90;99.90
4207;DHT22;2117;47.972;7.830;2022-08-19T14:37:50;27.70;99.90
4207;DHT22;2117;47.972;7.830;2022-08-19T14:40:22;27.30;99.90
4207;DHT22;2117;47.972;7.830;2022-08-19T14:42:52;27.10;99.90
4207;DHT22;2117;47.972;7.830;2022-08-19T14:45:21;26.90;99.90
4207;DHT22;2117;47.972;7.830;2022-08-19T14:47:46;26.30;99.90
4207;DHT22;2117;47.972;7.830;2022-08-19T14:50:12;26.00;99.90
4207;DHT22;2117;47.972;7.830;2022-08-19T14:52:39;25.80;99.90
4207;DHT22;2117;47.972;7.830;2022-08-19T14:55:05;25.50;99.90
4207;DHT22;2117;47.972;7.830;2022-08-19T14:57:31;25.20;99.90
4207;DHT22;2117;47.972;7.830;2022-08-19T14:59:56;24.90;99.90
4207;DHT22;2117;47.972;7.830;2022-08-19T15:02:22;24.60;99.90
4207;DHT22;2117;47.972;7.830;2022-08-19T15:04:48;24.40;99.90
4207;DHT22;2117;47.972;7.830;2022-08-19T15:07:15;24.30;99.90
4207;DHT22;2117;47.972;7.830;2022-08-19T15:09:41;24.20;99.90
4207;DHT22;2117;47.972;7.830;2022-08-19T15:12:07;24.00;99.90
4207;DHT22;2117;47.972;7.830;2022-08-19T15:14:36;23.90;99.90
4207;DHT22;2117;47.972;7.830;2022-08-19T15:17:04;23.80;99.90
4207;DHT22;2117;47.972;7.830;2022-08-19T15:19:30;23.60;99.90
4207;DHT22;2117;47.972;7.830;2022-08-19T15:21:58;23.50;99.90
4207;DHT22;2117;47.972;7.830;2022-08-19T15:24:24;23.40;99.90
4207;DHT22;2117;47.972;7.830;2022-08-19T15:26:51;23.40;99.90
4207;DHT22;2117;47.972;7.830;2022-08-19T15:29:17;23.30;99.90
4207;DHT22;2117;47.972;7.830;2022-08-19T15:31:42;23.20;99.90
4207;DHT22;2117;47.972;7.830;2022-08-19T15:34:08;23.10;99.90
4207;DHT22;2117;47.972;7.830;2022-08-19T15:36:34;23.00;99.90
4207;DHT22;2117;47.972;7.830;2022-08-19T15:39:01;23.00;99.90
4207;DHT22;2117;47.972;7.830;2022-08-19T15:41:29;22.90;99.90
4207;DHT22;2117;47.972;7.830;2022-08-19T15:46:24;22.80;99.90
4207;DHT22;2117;47.972;7.830;2022-08-19T15:48:51;22.80;99.90
4207;DHT22;2117;47.972;7.830;2022-08-19T15:51:17;22.80;99.90
4207;DHT22;2117;47.972;7.830;2022-08-19T15:53:43;22.80;99.90
4207;DHT22;2117;47.972;7.830;2022-08-19T15:56:09;22.70;99.90
4207;DHT22;2117;47.972;7.830;2022-08-19T15:58:35;22.70;99.90
4207;DHT22;2117;47.972;7.830;2022-08-19T16:01:19;22.80;99.90
4207;DHT22;2117;47.972;7.830;2022-08-19T16:04:04;22.90;99.90
4207;DHT22;2117;47.972;7.830;2022-08-19T16:06:53;23.00;99.90
4207;DHT22;2117;47.972;7.830;2022-08-19T16:09:21;23.10;99.90
4207;DHT22;2117;47.972;7.830;2022-08-19T16:11:48;23.10;99.90
4207;DHT22;2117;47.972;7.830;2022-08-19T16:14:16;23.10;99.90
4207;DHT22;2117;47.972;7.830;2022-08-19T16:16:42;23.10;99.90
4207;DHT22;2117;47.972;7.830;2022-08-19T16:19:11;23.20;99.90
4207;DHT22;2117;47.972;7.830;2022-08-19T16:21:41;23.20;99.90
4207;DHT22;2117;47.972;7.830;2022-08-19T16:24:09;23.20;99.90
4207;DHT22;2117;47.972;7.830;2022-08-19T16:26:37;23.30;99.90
4207;DHT22;2117;47.972;7.830;2022-08-19T16:29:04;23.30;99.90
4207;DHT22;2117;47.972;7.830;2022-08-19T16:31:31;23.30;99.90
4207;DHT22;2117;47.972;7.830;2022-08-19T16:33:57;23.20;99.90
4207;DHT22;2117;47.972;7.830;2022-08-19T16:36:22;23.30;99.90
4207;DHT22;2117;47.972;7.830;2022-08-19T16:38:52;23.20;99.90
4207;DHT22;2117;47.972;7.830;2022-08-19T16:41:18;23.30;99.90
4207;DHT22;2117;47.972;7.830;2022-08-19T16:43:45;23.30;99.90
4207;DHT22;2117;47.972;7.830;2022-08-19T16:46:10;23.30;99.90
4207;DHT22;2117;47.972;7.830;2022-08-19T16:48:37;23.20;99.90
4207;DHT22;2117;47.972;7.830;2022-08-19T16:51:08;23.20;99.90
4207;DHT22;2117;47.972;7.830;2022-08-19T16:53:34;23.20;99.90
4207;DHT22;2117;47.972;7.830;2022-08-19T16:56:01;23.20;99.90
4207;DHT22;2117;47.972;7.830;2022-08-19T16:58:29;23.30;99.90
4207;DHT22;2117;47.972;7.830;2022-08-19T17:00:59;23.30;99.90
4207;DHT22;2117;47.972;7.830;2022-08-19T17:03:27;23.20;99.90
4207;DHT22;2117;47.972;7.830;2022-08-19T17:05:54;23.30;99.90
4207;DHT22;2117;47.972;7.830;2022-08-19T17:08:22;23.30;99.90
4207;DHT22;2117;47.972;7.830;2022-08-19T17:10:52;23.30;99.90
4207;DHT22;2117;47.972;7.830;2022-08-19T17:13:19;23.30;99.90
4207;DHT22;2117;47.972;7.830;2022-08-19T17:15:46;23.30;99.90
4207;DHT22;2117;47.972;7.830;2022-08-19T17:18:12;23.20;99.90
4207;DHT22;2117;47.972;7.830;2022-08-19T17:20:39;23.20;99.90
4207;DHT22;2117;47.972;7.830;2022-08-19T17:23:05;23.10;99.90
4207;DHT22;2117;47.972;7.830;2022-08-19T17:25:32;23.10;99.90
4207;DHT22;2117;47.972;7.830;2022-08-19T17:28:10;23.00;99.90
4207;DHT22;2117;47.972;7.830;2022-08-19T17:30:36;22.90;99.90
4207;DHT22;2117;47.972;7.830;2022-08-19T17:33:02;22.90;99.90
4207;DHT22;2117;47.972;7.830;2022-08-19T17:35:28;22.90;99.90
4207;DHT22;2117;47.972;7.830;2022-08-19T17:37:54;22.90;99.90
4207;DHT22;2117;47.972;7.830;2022-08-19T17:40:20;22.80;99.90
4207;DHT22;2117;47.972;7.830;2022-08-19T17:42:46;22.80;99.90
4207;DHT22;2117;47.972;7.830;2022-08-19T17:45:13;22.70;99.90
4207;DHT22;2117;47.972;7.830;2022-08-19T17:47:39;22.70;99.90
4207;DHT22;2117;47.972;7.830;2022-08-19T17:50:08;22.60;99.90
4207;DHT22;2117;47.972;7.830;2022-08-19T17:52:36;22.60;99.90
4207;DHT22;2117;47.972;7.830;2022-08-19T17:55:02;22.60;99.90
4207;DHT22;2117;47.972;7.830;2022-08-19T17:57:28;22.60;99.90
4207;DHT22;2117;47.972;7.830;2022-08-19T17:59:53;22.50;99.90
4207;DHT22;2117;47.972;7.830;2022-08-19T18:02:19;22.50;99.90
4207;DHT22;2117;47.972;7.830;2022-08-19T18:04:45;22.50;99.90
4207;DHT22;2117;47.972;7.830;2022-08-19T18:07:11;22.50;99.90
4207;DHT22;2117;47.972;7.830;2022-08-19T18:09:38;22.50;99.90
4207;DHT22;2117;47.972;7.830;2022-08-19T18:12:05;22.40;99.90
4207;DHT22;2117;47.972;7.830;2022-08-19T18:14:34;22.40;99.90
4207;DHT22;2117;47.972;7.830;2022-08-19T18:17:11;22.40;99.90
4207;DHT22;2117;47.972;7.830;2022-08-19T18:19:39;22.30;99.90
4207;DHT22;2117;47.972;7.830;2022-08-19T18:22:05;22.30;99.90
4207;DHT22;2117;47.972;7.830;2022-08-19T18:24:31;22.30;99.90
4207;DHT22;2117;47.972;7.830;2022-08-19T18:26:56;22.30;99.90
4207;DHT22;2117;47.972;7.830;2022-08-19T18:29:22;22.20;99.90
4207;DHT22;2117;47.972;7.830;2022-08-19T18:31:48;22.20;99.90
4207;DHT22;2117;47.972;7.830;2022-08-19T18:34:14;22.20;99.90
4207;DHT22;2117;47.972;7.830;2022-08-19T18:36:40;22.10;99.90
4207;DHT22;2117;47.972;7.830;2022-08-19T18:39:06;22.10;99.90
4207;DHT22;2117;47.972;7.830;2022-08-19T18:41:51;22.00;99.90
4207;DHT22;2117;47.972;7.830;2022-08-19T18:44:35;22.00;99.90
4207;DHT22;2117;47.972;7.830;2022-08-19T18:47:20;21.90;99.90
4207;DHT22;2117;47.972;7.830;2022-08-19T18:50:05;21.80;99.90
4207;DHT22;2117;47.972;7.830;2022-08-19T18:52:33;21.70;99.90
4207;DHT22;2117;47.972;7.830;2022-08-19T18:55:00;21.60;99.90
4207;DHT22;2117;47.972;7.830;2022-08-19T18:57:26;21.60;99.90
4207;DHT22;2117;47.972;7.830;2022-08-19T18:59:52;21.50;99.90
4207;DHT22;2117;47.972;7.830;2022-08-19T19:02:18;21.40;99.90
4207;DHT22;2117;47.972;7.830;2022-08-19T19:04:44;21.40;99.90
4207;DHT22;2117;47.972;7.830;2022-08-19T19:07:11;21.30;99.90
4207;DHT22;2117;47.972;7.830;2022-08-19T19:09:38;21.30;99.90
4207;DHT22;2117;47.972;7.830;2022-08-19T19:12:07;21.20;99.90
4207;DHT22;2117;47.972;7.830;2022-08-19T19:14:36;21.10;99.90
4207;DHT22;2117;47.972;7.830;2022-08-19T19:17:07;21.00;99.90
4207;DHT22;2117;47.972;7.830;2022-08-19T19:19:35;21.00;99.90
4207;DHT22;2117;47.972;7.830;2022-08-19T19:22:03;20.90;99.90
4207;DHT22;2117;47.972;7.830;2022-08-19T19:24:31;20.80;99.90
4207;DHT22;2117;47.972;7.830;2022-08-19T19:27:00;20.70;99.90
4207;DHT22;2117;47.972;7.830;2022-08-19T19:29:30;20.70;99.90
4207;DHT22;2117;47.972;7.830;2022-08-19T19:31:55;20.60;99.90
4207;DHT22;2117;47.972;7.830;2022-08-19T19:34:22;20.60;99.90
4207;DHT22;2117;47.972;7.830;2022-08-19T19:36:48;20.50;99.90
4207;DHT22;2117;47.972;7.830;2022-08-19T19:39:14;20.40;99.90
4207;DHT22;2117;47.972;7.830;2022-08-19T19:41:40;20.40;99.90
4207;DHT22;2117;47.972;7.830;2022-08-19T19:44:06;20.40;99.90
4207;DHT22;2117;47.972;7.830;2022-08-19T19:46:33;20.30;99.90